Pagrindinis puslapis
METAR-TAF:

METAR-TAF

Oro uostai :

Funšalis, Madeiros salos, Portugalija

platuma: 32-41-52N, ilguma: 016-46-28W, Aukštis: 59 m

Dabartinis oras

Ataskaita buvo paskelbta 54 minutes, ne 21:30 UTC
Vėjas 10 kt iš Šiaurės/Šiaurės Rytų
Temperatūra 19°C
Drėgmė 52%
Slėgis 1021 hPa
Matomumas 10 km arba daugiau
Mažai debesys ne aukštis 1300 ft

METAR: LPMA 152130Z 03010KT 9999 FEW013 19/09 Q1021

Laikas: 23:24 (22:24 UTC)

Prognozė

Ataskaita buvo paskelbta 5 valandos ir 24 minutes, ne 17:00 UTC
Prognozė galioja nuo 15 metu 18 UTC su 16 metu 18 UTC
Vėjas 12 kt iš Šiaurės Rytų
Matomumas 10 km arba daugiau
Mažai debesys ne aukštis 1600 ft
Tapsmas
nuo 15 metu 22 UTC su 15 metu 24 UTC
Vėjas 8 kt iš Šiaurės
Tapsmas
nuo 16 metu 10 UTC su 16 metu 12 UTC
Vėjas 7 kt iš Rytų/Šiaurės Rytų

TAF: LPMA 151700Z 1518/1618 04012KT 9999 FEW016 BECMG 1522/1524 01008KT BECMG 1610/1612 06007KT

Orai ataskaitas ir orų prognozės (METAR, TAF).

turimą stotys yra geltonos ir raudonos taškus žemėlapyje.

Perkelti pele per norėdami pamatyti stoties vardą.

Tada spustelėkite, norėdami matyti oro stebėjimo ir prognozės.

Norėdami pakeisti žemėlapį: spustelėkite ant žalios mygtukų su juodo kryžiaus žemyn,; žalią mygtuką su brūkšneliu, jei norite nutolinti; arba žalių rodyklių gretimoms žemėlapius.


METAR-TAF: